createdAt,value
2023-03-27T00:01:30.553Z,100.00
2023-03-27T00:04:00.357Z,100.00
2023-03-27T00:06:28.763Z,100.00
2023-03-27T00:08:57.999Z,100.00
2023-03-27T00:11:25.067Z,100.00
2023-03-27T00:13:56.234Z,100.00
2023-03-27T00:16:25.153Z,100.00
2023-03-27T00:18:52.970Z,100.00
2023-03-27T00:21:20.710Z,100.00
2023-03-27T00:23:47.817Z,100.00
2023-03-27T00:26:15.322Z,100.00
2023-03-27T00:28:42.076Z,100.00
2023-03-27T00:31:13.916Z,100.00
2023-03-27T00:33:41.208Z,100.00
2023-03-27T00:36:09.366Z,100.00
2023-03-27T00:38:36.694Z,100.00
2023-03-27T00:41:03.291Z,100.00
2023-03-27T00:43:33.926Z,100.00
2023-03-27T00:46:06.091Z,100.00
2023-03-27T00:48:37.024Z,100.00
2023-03-27T00:51:05.760Z,100.00
2023-03-27T00:53:33.517Z,100.00
2023-03-27T00:56:05.452Z,100.00
2023-03-27T00:58:33.610Z,100.00
2023-03-27T01:01:03.476Z,100.00
2023-03-27T01:03:33.142Z,100.00
2023-03-27T01:06:04.079Z,100.00
2023-03-27T01:08:33.805Z,100.00
2023-03-27T01:11:27.582Z,100.00
2023-03-27T01:14:12.488Z,100.00
2023-03-27T01:17:10.920Z,100.00
2023-03-27T01:20:15.196Z,100.00
2023-03-27T01:22:57.093Z,100.00
2023-03-27T01:25:57.407Z,100.00
2023-03-27T01:28:27.002Z,100.00
2023-03-27T01:31:06.456Z,100.00
2023-03-27T01:33:36.360Z,100.00
2023-03-27T01:36:34.735Z,100.00
2023-03-27T01:39:19.742Z,100.00
2023-03-27T01:41:52.099Z,100.00
2023-03-27T01:44:43.780Z,100.00
2023-03-27T01:47:41.270Z,100.00
2023-03-27T01:50:08.146Z,100.00
2023-03-27T01:52:39.327Z,100.00
2023-03-27T01:55:11.109Z,100.00
2023-03-27T01:57:50.056Z,100.00
2023-03-27T02:00:22.405Z,100.00
2023-03-27T02:03:03.303Z,100.00
2023-03-27T02:05:29.745Z,100.00
2023-03-27T02:08:16.626Z,100.00
2023-03-27T02:10:48.170Z,100.00
2023-03-27T02:13:19.796Z,100.00
2023-03-27T02:15:49.479Z,100.00
2023-03-27T02:18:22.368Z,100.00
2023-03-27T02:20:48.929Z,100.00
2023-03-27T02:23:15.463Z,100.00
2023-03-27T02:25:44.644Z,100.00
2023-03-27T02:28:38.797Z,100.00
2023-03-27T02:31:32.750Z,100.00
2023-03-27T02:34:13.194Z,100.00
2023-03-27T02:37:06.855Z,100.00
2023-03-27T02:39:58.042Z,100.00
2023-03-27T02:42:39.179Z,100.00
2023-03-27T02:45:26.101Z,100.00
2023-03-27T02:48:01.991Z,100.00
2023-03-27T02:50:36.566Z,100.00
2023-03-27T02:53:08.912Z,100.00
2023-03-27T02:55:43.320Z,100.00
2023-03-27T02:58:15.047Z,100.00
2023-03-27T03:00:48.776Z,100.00
2023-03-27T03:03:39.167Z,100.00
2023-03-27T03:06:11.053Z,100.00
2023-03-27T03:08:39.185Z,100.00
2023-03-27T03:11:12.332Z,100.00
2023-03-27T03:13:39.249Z,100.00
2023-03-27T03:16:08.739Z,100.00
2023-03-27T03:18:36.440Z,100.00
2023-03-27T03:21:03.164Z,100.00
2023-03-27T03:23:29.619Z,100.00
2023-03-27T03:25:56.831Z,100.00
2023-03-27T03:28:26.040Z,100.00
2023-03-27T03:30:53.776Z,100.00
2023-03-27T03:33:21.554Z,100.00
2023-03-27T03:35:50.195Z,100.00
2023-03-27T03:38:26.203Z,100.00
2023-03-27T03:40:53.897Z,100.00
2023-03-27T03:43:22.269Z,100.00
2023-03-27T03:45:49.858Z,100.00
2023-03-27T03:48:17.461Z,100.00
2023-03-27T03:50:45.012Z,100.00
2023-03-27T03:53:12.610Z,100.00
2023-03-27T03:55:42.856Z,100.00
2023-03-27T03:58:12.786Z,100.00
2023-03-27T04:00:40.684Z,100.00
2023-03-27T04:03:14.787Z,100.00
2023-03-27T04:05:42.569Z,100.00
2023-03-27T04:08:12.658Z,100.00
2023-03-27T04:10:41.634Z,100.00
2023-03-27T04:13:10.358Z,100.00
2023-03-27T04:15:37.440Z,100.00
2023-03-27T04:18:04.630Z,100.00
2023-03-27T04:20:34.524Z,100.00
2023-03-27T04:23:02.392Z,100.00
2023-03-27T04:25:30.296Z,100.00
2023-03-27T04:27:57.107Z,100.00
2023-03-27T04:30:25.389Z,100.00
2023-03-27T04:32:52.941Z,100.00
2023-03-27T04:35:20.738Z,100.00
2023-03-27T04:37:50.963Z,100.00
2023-03-27T04:40:20.801Z,100.00
2023-03-27T04:42:47.319Z,100.00
2023-03-27T04:45:20.360Z,100.00
2023-03-27T04:47:49.035Z,100.00
2023-03-27T04:50:16.279Z,100.00
2023-03-27T04:52:43.046Z,100.00
2023-03-27T04:55:12.547Z,100.00
2023-03-27T04:57:39.717Z,100.00
2023-03-27T05:00:19.205Z,100.00
2023-03-27T05:02:52.749Z,100.00
2023-03-27T05:05:19.776Z,100.00
2023-03-27T05:07:47.906Z,100.00
2023-03-27T05:10:17.222Z,100.00
2023-03-27T05:12:49.785Z,100.00
2023-03-27T05:15:18.093Z,100.00
2023-03-27T05:17:47.020Z,100.00
2023-03-27T05:20:17.125Z,100.00
2023-03-27T05:22:47.506Z,100.00
2023-03-27T05:25:14.345Z,100.00
2023-03-27T05:27:48.525Z,100.00
2023-03-27T05:30:17.103Z,100.00
2023-03-27T05:32:51.967Z,100.00
2023-03-27T05:35:21.636Z,100.00
2023-03-27T05:37:50.021Z,100.00
2023-03-27T05:40:21.874Z,100.00
2023-03-27T05:42:49.840Z,100.00
2023-03-27T05:45:17.040Z,100.00
2023-03-27T05:47:50.566Z,100.00
2023-03-27T05:50:19.199Z,100.00
2023-03-27T05:52:46.412Z,100.00
2023-03-27T05:55:16.986Z,100.00
2023-03-27T05:57:43.756Z,100.00
2023-03-27T06:00:16.610Z,100.00
2023-03-27T06:02:46.467Z,100.00
2023-03-27T06:05:16.511Z,100.00
2023-03-27T06:07:44.024Z,100.00
2023-03-27T06:10:14.442Z,100.00
2023-03-27T06:12:48.310Z,100.00
2023-03-27T06:15:15.829Z,100.00
2023-03-27T06:17:47.560Z,100.00
2023-03-27T06:20:15.774Z,100.00
2023-03-27T06:22:47.752Z,100.00
2023-03-27T06:25:15.541Z,100.00
2023-03-27T06:27:45.422Z,100.00
2023-03-27T06:30:14.873Z,100.00
2023-03-27T06:32:46.452Z,100.00
2023-03-27T06:35:14.715Z,100.00
2023-03-27T06:37:48.271Z,100.00
2023-03-27T06:40:24.149Z,100.00
2023-03-27T06:43:13.793Z,100.00
2023-03-27T06:45:45.697Z,100.00
2023-03-27T06:48:21.427Z,100.00
2023-03-27T06:50:50.890Z,100.00
2023-03-27T06:55:48.377Z,100.00
2023-03-27T06:58:15.426Z,100.00
2023-03-27T07:00:45.342Z,100.00
2023-03-27T07:03:15.110Z,100.00
2023-03-27T07:05:43.896Z,100.00
2023-03-27T07:08:21.682Z,100.00
2023-03-27T07:10:59.783Z,100.00
2023-03-27T07:13:37.098Z,100.00
2023-03-27T07:16:04.582Z,100.00
2023-03-27T07:18:31.706Z,100.00
2023-03-27T07:20:58.412Z,100.00
2023-03-27T07:23:25.534Z,100.00
2023-03-27T07:25:52.201Z,100.00
2023-03-27T07:28:19.500Z,100.00
2023-03-27T07:30:46.365Z,100.00
2023-03-27T07:33:14.265Z,100.00
2023-03-27T07:35:46.211Z,100.00
2023-03-27T07:38:14.258Z,100.00
2023-03-27T07:40:46.492Z,100.00
2023-03-27T07:43:16.788Z,100.00
2023-03-27T07:45:44.821Z,100.00
2023-03-27T07:48:16.758Z,100.00
2023-03-27T07:50:46.527Z,100.00
2023-03-27T07:53:33.198Z,100.00
2023-03-27T07:56:01.342Z,100.00
2023-03-27T07:58:27.962Z,100.00
2023-03-27T08:01:02.800Z,100.00
2023-03-27T08:03:31.151Z,100.00
2023-03-27T08:06:00.523Z,100.00
2023-03-27T08:08:27.767Z,100.00
2023-03-27T08:10:55.625Z,100.00
2023-03-27T08:13:22.635Z,100.00
2023-03-27T08:15:49.839Z,100.00
2023-03-27T08:18:16.439Z,100.00
2023-03-27T08:20:45.751Z,98.57
2023-03-27T08:23:15.283Z,97.72
2023-03-27T08:25:43.830Z,97.47
2023-03-27T08:28:11.719Z,96.91
2023-03-27T08:30:38.546Z,95.69
2023-03-27T08:33:05.421Z,97.91
2023-03-27T08:35:32.475Z,95.31
2023-03-27T08:37:59.301Z,95.09
2023-03-27T08:40:31.098Z,94.96
2023-03-27T08:43:03.982Z,93.16
2023-03-27T08:45:45.530Z,92.40
2023-03-27T08:48:24.228Z,91.67
2023-03-27T08:50:59.267Z,88.40
2023-03-27T08:53:34.377Z,89.36
2023-03-27T08:56:01.356Z,89.18
2023-03-27T08:58:27.971Z,87.63
2023-03-27T09:01:06.981Z,86.39
2023-03-27T09:03:47.255Z,83.50
2023-03-27T09:06:34.195Z,83.18
2023-03-27T09:09:09.911Z,84.93
2023-03-27T09:11:48.695Z,84.68
2023-03-27T09:14:27.556Z,82.61
2023-03-27T09:17:00.192Z,83.15
2023-03-27T09:19:56.709Z,85.95
2023-03-27T09:22:31.313Z,83.74
2023-03-27T09:25:04.136Z,83.31
2023-03-27T09:27:35.803Z,81.19
2023-03-27T09:30:13.333Z,80.14
2023-03-27T09:32:40.097Z,78.87
2023-03-27T09:35:06.864Z,79.04
2023-03-27T09:37:36.445Z,81.32
2023-03-27T09:40:07.698Z,82.25
2023-03-27T09:42:39.633Z,83.59
2023-03-27T09:45:10.066Z,81.53
2023-03-27T09:47:43.330Z,83.15
2023-03-27T09:50:28.005Z,84.42
2023-03-27T09:53:15.128Z,82.50
2023-03-27T09:55:50.475Z,80.15
2023-03-27T09:58:31.967Z,80.66
2023-03-27T10:01:17.129Z,77.05
2023-03-27T10:03:52.545Z,76.87
2023-03-27T10:06:31.043Z,78.72
2023-03-27T10:09:07.059Z,72.31
2023-03-27T10:11:35.891Z,74.14
2023-03-27T10:14:13.780Z,73.81
2023-03-27T10:16:42.770Z,72.38
2023-03-27T10:19:27.038Z,70.11
2023-03-27T10:21:55.905Z,71.88
2023-03-27T10:24:44.696Z,67.95
2023-03-27T10:27:20.382Z,67.43
2023-03-27T10:29:46.966Z,67.23
2023-03-27T10:32:13.869Z,64.72
2023-03-27T10:34:50.571Z,64.51
2023-03-27T10:37:27.335Z,65.10
2023-03-27T10:40:00.333Z,62.21
2023-03-27T10:42:31.242Z,57.61
2023-03-27T10:44:58.710Z,57.78
2023-03-27T10:47:30.181Z,58.40
2023-03-27T10:50:23.049Z,59.55
2023-03-27T10:52:52.221Z,60.70
2023-03-27T10:55:55.742Z,61.71
2023-03-27T10:58:31.205Z,60.73
2023-03-27T11:01:06.104Z,59.73
2023-03-27T11:03:51.100Z,62.67
2023-03-27T11:06:19.960Z,61.74
2023-03-27T11:09:16.015Z,60.91
2023-03-27T11:11:51.343Z,63.25
2023-03-27T11:14:25.264Z,62.37
2023-03-27T11:16:57.064Z,60.69
2023-03-27T11:19:54.615Z,63.13
2023-03-27T11:22:49.517Z,63.96
2023-03-27T11:25:19.802Z,63.33
2023-03-27T11:28:10.943Z,61.71
2023-03-27T11:30:44.937Z,60.51
2023-03-27T11:33:32.212Z,58.29
2023-03-27T11:36:05.574Z,59.83
2023-03-27T11:38:37.362Z,61.59
2023-03-27T11:41:04.401Z,61.09
2023-03-27T11:43:31.516Z,61.25
2023-03-27T11:46:15.999Z,64.97
2023-03-27T11:48:56.557Z,60.08
2023-03-27T11:51:45.995Z,61.24
2023-03-27T11:54:22.317Z,61.71
2023-03-27T11:56:54.634Z,61.40
2023-03-27T11:59:39.498Z,61.55
2023-03-27T12:02:18.389Z,60.26
2023-03-27T12:04:51.295Z,61.55
2023-03-27T12:07:35.859Z,60.82
2023-03-27T12:10:28.516Z,61.16
2023-03-27T12:13:15.991Z,58.32
2023-03-27T12:15:59.515Z,59.74
2023-03-27T12:18:36.076Z,57.35
2023-03-27T12:21:38.035Z,58.71
2023-03-27T12:24:35.662Z,57.88
2023-03-27T12:27:11.113Z,58.49
2023-03-27T12:29:52.968Z,58.63
2023-03-27T12:32:36.005Z,59.87
2023-03-27T12:35:13.716Z,57.62
2023-03-27T12:38:07.605Z,54.94
2023-03-27T12:40:41.960Z,57.52
2023-03-27T12:43:20.986Z,57.36
2023-03-27T12:46:16.381Z,55.18
2023-03-27T12:48:52.816Z,56.00
2023-03-27T12:51:34.689Z,56.56
2023-03-27T12:54:24.033Z,55.46
2023-03-27T12:57:00.278Z,56.45
2023-03-27T12:59:29.008Z,57.60
2023-03-27T13:02:04.797Z,56.70
2023-03-27T13:04:51.440Z,57.67
2023-03-27T13:07:37.528Z,56.83
2023-03-27T13:10:28.214Z,57.49
2023-03-27T13:13:32.500Z,57.99
2023-03-27T13:16:33.333Z,56.89
2023-03-27T13:19:39.233Z,56.88
2023-03-27T13:22:27.940Z,58.07
2023-03-27T13:25:00.391Z,57.61
2023-03-27T13:27:44.401Z,57.82
2023-03-27T13:30:41.429Z,59.76
2023-03-27T13:33:11.961Z,59.69
2023-03-27T13:35:41.410Z,59.58
2023-03-27T13:38:11.532Z,58.78
2023-03-27T13:40:44.474Z,59.28
2023-03-27T13:43:23.120Z,58.73
2023-03-27T13:45:57.380Z,57.11
2023-03-27T13:48:45.264Z,58.27
2023-03-27T13:51:23.987Z,57.83
2023-03-27T13:54:22.808Z,57.35
2023-03-27T13:57:05.358Z,59.12
2023-03-27T13:59:38.661Z,57.98
2023-03-27T14:02:38.636Z,58.40
2023-03-27T14:05:31.465Z,59.10
2023-03-27T14:08:10.393Z,59.59
2023-03-27T14:11:03.014Z,59.28
2023-03-27T14:13:38.552Z,59.34
2023-03-27T14:16:38.268Z,58.68
2023-03-27T14:19:30.812Z,58.88
2023-03-27T14:22:00.168Z,59.31
2023-03-27T14:24:38.182Z,70.39
2023-03-27T14:27:10.931Z,61.76
2023-03-27T14:29:37.452Z,60.61
2023-03-27T14:32:06.516Z,58.74
2023-03-27T14:34:47.213Z,58.37
2023-03-27T14:37:30.430Z,58.65
2023-03-27T14:40:00.171Z,56.06
2023-03-27T14:42:31.937Z,55.88
2023-03-27T14:45:27.466Z,58.19
2023-03-27T14:47:59.702Z,57.17
2023-03-27T14:50:28.603Z,58.34
2023-03-27T14:52:57.774Z,58.09
2023-03-27T14:55:29.746Z,57.09
2023-03-27T14:58:00.604Z,58.03
2023-03-27T15:00:32.036Z,58.10
2023-03-27T15:03:05.271Z,58.07
2023-03-27T15:05:32.153Z,56.14
2023-03-27T15:08:00.189Z,56.67
2023-03-27T15:10:31.616Z,56.32
2023-03-27T15:12:58.346Z,56.03
2023-03-27T15:15:42.776Z,56.37
2023-03-27T15:18:32.959Z,55.96
2023-03-27T15:21:04.412Z,56.20
2023-03-27T15:23:44.309Z,55.57
2023-03-27T15:26:19.206Z,55.93
2023-03-27T15:29:01.765Z,55.43
2023-03-27T15:31:30.118Z,55.77
2023-03-27T15:34:34.442Z,56.35
2023-03-27T15:37:18.649Z,57.13
2023-03-27T15:40:13.509Z,57.50
2023-03-27T15:42:46.541Z,57.50
2023-03-27T15:45:16.745Z,57.75
2023-03-27T15:47:43.472Z,55.84
2023-03-27T15:50:24.195Z,55.64
2023-03-27T15:52:58.124Z,55.29
2023-03-27T15:55:35.828Z,56.43
2023-03-27T15:58:26.926Z,57.69
2023-03-27T16:01:02.261Z,58.45
2023-03-27T16:03:32.586Z,58.56
2023-03-27T16:06:00.407Z,58.08
2023-03-27T16:08:32.634Z,57.23
2023-03-27T16:11:00.851Z,55.68
2023-03-27T16:13:34.562Z,56.54
2023-03-27T16:16:04.353Z,56.66
2023-03-27T16:18:35.260Z,56.44
2023-03-27T16:21:07.034Z,57.82
2023-03-27T16:23:33.635Z,57.60
2023-03-27T16:26:01.490Z,58.07
2023-03-27T16:28:29.901Z,56.61
2023-03-27T16:30:59.245Z,57.31
2023-03-27T16:33:29.678Z,57.89
2023-03-27T16:35:59.632Z,57.30
2023-03-27T16:38:28.914Z,57.66
2023-03-27T16:40:58.486Z,56.98
2023-03-27T16:43:28.760Z,58.26
2023-03-27T16:45:59.339Z,58.99
2023-03-27T16:48:29.001Z,59.36
2023-03-27T16:50:58.809Z,60.10
2023-03-27T16:53:28.980Z,59.87
2023-03-27T16:55:56.972Z,58.65
2023-03-27T16:58:24.524Z,58.98
2023-03-27T17:00:51.253Z,59.57
2023-03-27T17:03:17.828Z,58.98
2023-03-27T17:05:44.440Z,59.42
2023-03-27T17:08:12.990Z,59.79
2023-03-27T17:10:39.492Z,58.74
2023-03-27T17:13:05.940Z,59.89
2023-03-27T17:15:38.874Z,59.23
2023-03-27T17:18:06.233Z,58.37
2023-03-27T17:20:32.802Z,58.51
2023-03-27T17:22:59.286Z,59.36
2023-03-27T17:25:29.078Z,60.64
2023-03-27T17:27:56.833Z,61.72
2023-03-27T17:30:36.726Z,60.38
2023-03-27T17:33:06.082Z,60.91
2023-03-27T17:35:32.564Z,62.50
2023-03-27T17:37:59.064Z,63.21
2023-03-27T17:40:26.728Z,64.59
2023-03-27T17:42:53.164Z,64.33
2023-03-27T17:45:19.682Z,64.16
2023-03-27T17:47:46.205Z,64.51
2023-03-27T17:50:12.655Z,65.99
2023-03-27T17:52:39.084Z,66.01
2023-03-27T17:55:06.493Z,66.59
2023-03-27T17:57:33.064Z,66.85
2023-03-27T17:59:59.583Z,71.53
2023-03-27T18:02:29.233Z,76.12
2023-03-27T18:04:58.642Z,68.87
2023-03-27T18:07:28.829Z,66.62
2023-03-27T18:09:59.267Z,65.50
2023-03-27T18:12:26.664Z,67.10
2023-03-27T18:14:53.323Z,67.93
2023-03-27T18:17:26.670Z,68.74
2023-03-27T18:19:53.548Z,69.34
2023-03-27T18:22:21.445Z,68.22
2023-03-27T18:24:47.948Z,68.94
2023-03-27T18:27:16.101Z,71.04
2023-03-27T18:29:42.588Z,71.53
2023-03-27T18:32:09.039Z,70.37
2023-03-27T18:34:35.781Z,69.63
2023-03-27T18:37:02.289Z,70.72
2023-03-27T18:39:29.246Z,72.08
2023-03-27T18:42:01.586Z,71.92
2023-03-27T18:44:28.269Z,72.41
2023-03-27T18:46:57.498Z,73.26
2023-03-27T18:50:11.062Z,72.05
2023-03-27T18:52:38.332Z,72.72
2023-03-27T18:55:09.187Z,73.93
2023-03-27T18:58:13.482Z,73.47
2023-03-27T19:00:40.623Z,73.78
2023-03-27T19:03:43.365Z,74.24
2023-03-27T19:06:11.978Z,73.71
2023-03-27T19:08:41.944Z,74.12
2023-03-27T19:11:09.931Z,75.22
2023-03-27T19:13:36.507Z,76.35
2023-03-27T19:16:14.937Z,78.04
2023-03-27T19:18:42.015Z,77.50
2023-03-27T19:21:08.528Z,75.33
2023-03-27T19:23:35.003Z,73.82
2023-03-27T19:26:13.431Z,73.48
2023-03-27T19:28:44.111Z,75.17
2023-03-27T19:31:12.568Z,75.58
2023-03-27T19:33:40.276Z,76.58
2023-03-27T19:36:07.493Z,74.67
2023-03-27T19:38:34.066Z,74.77
2023-03-27T19:41:00.785Z,75.07
2023-03-27T19:43:29.945Z,75.74
2023-03-27T19:46:15.093Z,75.55
2023-03-27T19:48:43.875Z,76.00
2023-03-27T19:51:10.393Z,75.56
2023-03-27T19:53:37.721Z,76.79
2023-03-27T19:56:04.384Z,77.33
2023-03-27T19:58:30.870Z,77.16
2023-03-27T20:00:57.756Z,78.07
2023-03-27T20:03:28.193Z,78.26
2023-03-27T20:06:15.613Z,80.06
2023-03-27T20:08:43.335Z,80.54
2023-03-27T20:11:13.660Z,78.79
2023-03-27T20:13:53.100Z,79.88
2023-03-27T20:16:27.726Z,79.45
2023-03-27T20:19:15.897Z,78.72
2023-03-27T20:21:43.484Z,78.13
2023-03-27T20:24:12.360Z,77.78
2023-03-27T20:26:40.584Z,77.48
2023-03-27T20:29:13.170Z,76.72
2023-03-27T20:31:40.835Z,76.47
2023-03-27T20:34:07.922Z,76.25
2023-03-27T20:36:35.250Z,77.37
2023-03-27T20:39:04.682Z,78.83
2023-03-27T20:41:31.394Z,79.02
2023-03-27T20:43:58.916Z,80.28
2023-03-27T20:46:30.630Z,79.71
2023-03-27T20:49:00.252Z,80.52
2023-03-27T20:51:27.350Z,81.61
2023-03-27T20:53:56.801Z,81.65
2023-03-27T20:56:23.862Z,80.92
2023-03-27T20:58:51.458Z,81.74
2023-03-27T21:01:19.492Z,82.95
2023-03-27T21:03:49.383Z,85.04
2023-03-27T21:06:18.765Z,87.72
2023-03-27T21:08:46.515Z,88.34
2023-03-27T21:11:13.802Z,89.23
2023-03-27T21:13:41.195Z,89.02
2023-03-27T21:16:08.169Z,87.87
2023-03-27T21:18:34.786Z,87.62
2023-03-27T21:21:01.383Z,88.00
2023-03-27T21:26:20.173Z,90.63
2023-03-27T21:28:46.598Z,90.28
2023-03-27T21:31:20.514Z,89.69
2023-03-27T21:33:51.594Z,88.95
2023-03-27T21:36:18.128Z,88.36
2023-03-27T21:38:44.694Z,87.85
2023-03-27T21:41:16.191Z,87.70
2023-03-27T21:43:42.767Z,87.87
2023-03-27T21:46:09.303Z,87.82
2023-03-27T21:48:35.856Z,87.83
2023-03-27T21:51:05.384Z,88.06
2023-03-27T21:53:31.922Z,87.66
2023-03-27T21:56:00.101Z,86.72
2023-03-27T21:58:26.963Z,85.70
2023-03-27T22:00:57.031Z,84.98
2023-03-27T22:03:24.832Z,84.77
2023-03-27T22:06:08.003Z,85.88
2023-03-27T22:08:38.303Z,86.58
2023-03-27T22:11:05.390Z,86.64
2023-03-27T22:13:32.528Z,87.28
2023-03-27T22:16:01.530Z,87.37
2023-03-27T22:18:32.236Z,85.99
2023-03-27T22:21:02.090Z,85.63
2023-03-27T22:23:28.859Z,84.78
2023-03-27T22:25:55.466Z,84.67
2023-03-27T22:28:22.050Z,85.25
2023-03-27T22:30:48.617Z,86.25
2023-03-27T22:33:15.322Z,86.58
2023-03-27T22:35:47.796Z,87.40
2023-03-27T22:38:14.772Z,88.20
2023-03-27T22:40:41.194Z,89.15
2023-03-27T22:43:07.691Z,88.78
2023-03-27T22:45:37.233Z,88.87
2023-03-27T22:48:05.592Z,87.16
2023-03-27T22:50:35.993Z,85.83
2023-03-27T22:53:06.387Z,85.99
2023-03-27T22:55:36.000Z,88.30
2023-03-27T22:58:06.085Z,88.88
2023-03-27T23:00:35.760Z,88.37
2023-03-27T23:03:02.950Z,87.33
2023-03-27T23:05:29.721Z,87.80
2023-03-27T23:07:56.189Z,87.89
2023-03-27T23:10:22.637Z,88.59
2023-03-27T23:12:49.131Z,87.54
2023-03-27T23:15:15.744Z,88.46
2023-03-27T23:17:56.910Z,88.58
2023-03-27T23:20:23.456Z,88.36
2023-03-27T23:22:49.961Z,88.84
2023-03-27T23:25:16.478Z,88.51
2023-03-27T23:27:42.893Z,88.89
2023-03-27T23:30:09.681Z,88.70
2023-03-27T23:32:37.900Z,89.17
2023-03-27T23:35:10.678Z,89.45
2023-03-27T23:37:37.370Z,89.58
2023-03-27T23:40:07.934Z,91.39
2023-03-27T23:42:38.162Z,92.84
2023-03-27T23:45:08.176Z,92.55
2023-03-27T23:47:36.407Z,92.62
2023-03-27T23:50:02.995Z,93.48
2023-03-27T23:52:29.446Z,92.68
2023-03-27T23:54:56.244Z,93.68
2023-03-27T23:57:22.863Z,94.52
2023-03-27T23:59:49.327Z,96.10
